Strona główna
METAR-TAF:

METAR-TAF

Lotnisko :

Port lotniczy Valladolid

Valladolid, Hiszpania

Szerokość geograficzna: 41-43N, Długość geograficzna: 004-51W, wysokość: 849 m

Aktualna obserwacja pogody

Raport powstał 23 minut temu, godzina 11:30 UTC
Wiatr 3 kt od południowo-południowy zachód, zmienny między południowo-południowy wschód i zachodnio-południowy zachód
Temperatura 4°C
Wilgotność 93%
Ciśnienie 1029 hPa
Widzialność: 4000 m
Rozproszone chmury na wysokości 200 ft
Mgła w płatach

METAR: LEVD 101130Z 20003KT 160V250 9000 4000 BCFG SCT002 04/03 Q1029

czas: 12:53 (11:53 UTC)

Prognoza

Raport powstał 53 minut temu, godzina 11:00 UTC
Prognoza ważna od 10 godzina 12 UTC do 11 godzina 12 UTC
Wiatr 2 kt z kierunków zmiennych
Widzialność 10 km lub więcej
Brak chmur poniżej 1500 m i brak chmur cumulonimbus
Przejściowo
od 11 godzina 03 UTC do 11 godzina 09 UTC
Widzialność: 3000 m
Przerywane chmury na wysokości 1000 ft
deszcz, zamglenie

TAF: LEVD 101100Z 1012/1112 VRB02KT CAVOK TX09/1015Z TN01/1106Z TEMPO 1103/1109 3000 RA BR BKN010

Obserwacja i prognoza pogody dla ponad 4000 lotnisk (raport METAR i TAF).

Dostępne stacje oznaczono żółtymi i czerwonymi punktami na mapie.

Najedź kursorem aby zobaczyć nazwę stacji.

Kliknij aby zobaczyć obserwacje i prognozy pogody.

Aby zmienić mapę: kliknij na zielony przycisk z czarnym krzyżykiem, aby powiększyć; na zielony przycisk z myślnikiem, aby pomniejszyć; na zielone strzałki, aby przejść do map sąsiednich.


METAR-TAF: